CMB826 Details

Departure: Travis Air Force Base (KSUU)
Arrival: Daniel K Inouye International Airport (PHNL)
Route: BESSA PYE BEBOP R464 BITTA
Notes: USTRANSCOM CONTRACT FLIGHT


Current Weather Information
KSUU 212226Z AUTO 24017KT 10SM FEW049 BKN070 17/09 A2984 RMK AO2 RAE00RAB16E26 SLP112 $
PHNL 212253Z 22011KT 10SM FEW025 FEW045 31/21 A3003 RMK AO2 SLP168 T03060206 $